Time;durP1;ratioP1;P1;durP2;ratioP2;P2;SDS_P1;SDS_P2;PMS_P1;PMS_P2;Temp;Humidity;BMP_temperature;BMP_pressure;BME280_temperature;BME280_humidity;BME280_pressure;Samples;Min_cycle;Max_cycle;Signal;HPM_P1;HPM_P2
2021/10/02 00:46:57;;;;;;;18.40;13.63;;;22.60;50.70;;;;;;31135749;28;20061;-49
2021/10/02 01:02:22;;;;;;;17.17;14.80;;;22.60;50.90;;;;;;31178752;28;20042;-46
2021/10/02 01:17:33;;;;;;;17.83;13.82;;;22.50;51.20;;;;;;31217727;28;20042;-50
2021/10/02 01:33:02;;;;;;;14.32;11.93;;;22.50;51.30;;;;;;31134028;28;20050;-50
2021/10/02 01:48:05;;;;;;;18.15;12.43;;;22.40;51.40;;;;;;31130095;28;20062;-61
2021/10/02 02:03:09;;;;;;;13.70;11.30;;;22.40;51.60;;;;;;31207344;28;20046;-56
2021/10/02 02:18:15;;;;;;;15.23;10.43;;;22.40;51.70;;;;;;31200156;28;20042;-50
2021/10/02 02:33:21;;;;;;;;;;;22.40;51.60;;;;;;31239683;28;20042;-57
2021/10/02 02:48:31;;;;;;;11.85;10.25;;;22.40;51.80;;;;;;31149736;28;19922;-56
2021/10/02 03:03:37;;;;;;;13.02;9.43;;;22.40;51.80;;;;;;31176830;28;20097;-55
2021/10/02 03:18:52;;;;;;;10.48;9.38;;;22.40;51.80;;;;;;31195282;28;20046;-55
2021/10/02 03:33:54;;;;;;;10.43;9.32;;;22.30;52.00;;;;;;31222109;28;20463;-51
2021/10/02 03:48:56;;;;;;;11.18;9.15;;;22.30;51.90;;;;;;31184244;28;20065;-62
2021/10/02 04:03:58;;;;;;;15.43;7.90;;;22.40;51.80;;;;;;31211949;28;20065;-55
2021/10/02 04:19:01;;;;;;;12.63;7.22;;;22.70;51.60;;;;;;31189176;28;20053;-49
2021/10/02 04:34:03;;;;;;;8.48;6.60;;;23.00;51.00;;;;;;31260569;28;20052;-49
2021/10/02 04:49:07;;;;;;;5.90;5.07;;;23.00;51.20;;;;;;31254838;28;20058;-54
2021/10/02 05:04:09;;;;;;;7.18;5.88;;;22.90;49.80;;;;;;31178442;28;20037;-55
2021/10/02 05:19:11;;;;;;;8.85;5.63;;;22.70;51.50;;;;;;31236983;28;20097;-55
2021/10/02 05:34:14;;;;;;;9.50;5.40;;;22.70;53.00;;;;;;31179553;28;20050;-53
2021/10/02 05:49:16;;;;;;;11.82;5.45;;;22.60;53.20;;;;;;31208906;28;20056;-51
2021/10/02 06:04:19;;;;;;;13.00;6.88;;;22.50;53.90;;;;;;31277657;28;20053;-58
2021/10/02 06:19:21;;;;;;;32.58;8.65;;;22.10;48.50;;;;;;31289340;28;20521;-44
2021/10/02 06:34:23;;;;;;;39.63;6.22;;;22.10;48.80;;;;;;31244156;28;20073;-45
2021/10/02 06:49:28;;;;;;;22.25;7.00;;;22.70;49.00;;;;;;31274156;28;20082;-48
2021/10/02 07:04:30;;;;;;;15.65;6.45;;;23.00;49.90;;;;;;31277169;28;20037;-47
2021/10/02 07:19:32;;;;;;;16.35;5.97;;;23.00;50.10;;;;;;31260245;28;20106;-47
2021/10/02 07:34:34;;;;;;;12.20;5.68;;;22.90;50.70;;;;;;31259778;28;20105;-48
2021/10/02 07:49:37;;;;;;;11.70;5.45;;;22.70;51.00;;;;;;31258856;28;20117;-48
2021/10/02 08:04:42;;;;;;;7.97;4.70;;;22.60;51.40;;;;;;31257361;28;20069;-49
2021/10/02 08:19:45;;;;;;;9.25;5.43;;;22.50;51.70;;;;;;31255696;28;20102;-51
2021/10/02 08:34:47;;;;;;;9.10;4.65;;;22.40;52.10;;;;;;31253959;28;20080;-47
2021/10/02 08:49:51;;;;;;;7.30;4.18;;;22.40;52.30;;;;;;31251817;28;20093;-47
2021/10/02 09:04:54;;;;;;;7.10;4.38;;;22.30;52.50;;;;;;31250867;28;20057;-51
2021/10/02 09:19:56;;;;;;;6.13;3.50;;;22.60;51.80;;;;;;31249514;28;20057;-50
2021/10/02 09:35:04;;;;;;;6.88;3.60;;;23.00;51.20;;;;;;31247363;28;20049;-51
2021/10/02 09:50:09;;;;;;;6.43;3.80;;;23.00;51.40;;;;;;31246454;28;20142;-48
2021/10/02 10:05:13;;;;;;;6.50;2.97;;;22.90;51.50;;;;;;31245076;28;20049;-51
2021/10/02 10:20:15;;;;;;;4.88;3.25;;;22.70;51.70;;;;;;31245189;28;20062;-52
2021/10/02 10:35:17;;;;;;;4.22;3.05;;;22.70;51.70;;;;;;31244756;28;20053;-51
2021/10/02 10:50:19;;;;;;;4.75;3.10;;;22.70;51.70;;;;;;31261232;28;20566;-49
2021/10/02 11:05:37;;;;;;;4.43;2.95;;;22.50;51.80;;;;;;31263254;28;20092;-50
2021/10/02 11:20:40;;;;;;;4.10;2.75;;;22.50;52.00;;;;;;31262503;28;20042;-47
2021/10/02 11:35:42;;;;;;;4.05;2.67;;;22.30;52.30;;;;;;31261127;28;20101;-52
2021/10/02 11:50:47;;;;;;;4.43;2.50;;;22.30;52.40;;;;;;31258218;28;20106;-52
2021/10/02 12:05:51;;;;;;;3.58;2.83;;;22.50;51.90;;;;;;31257391;28;20072;-52
2021/10/02 12:20:53;;;;;;;4.90;2.22;;;23.00;51.30;;;;;;31255467;28;20042;-52
2021/10/02 12:35:55;;;;;;;3.55;2.30;;;23.00;51.20;;;;;;31253984;28;20102;-51
2021/10/02 12:50:57;;;;;;;2.63;2.00;;;23.00;51.20;;;;;;31252578;28;20045;-52
2021/10/02 13:06:00;;;;;;;4.70;1.83;;;22.80;51.50;;;;;;31250048;28;20038;-48
2021/10/02 13:21:07;;;;;;;2.47;2.10;;;22.70;51.50;;;;;;31249227;28;20065;-49
2021/10/02 13:36:27;;;;;;;3.30;2.30;;;22.60;51.60;;;;;;31247556;28;20050;-49
2021/10/02 13:51:30;;;;;;;7.78;2.20;;;22.50;51.70;;;;;;31245933;28;20113;-51
2021/10/02 14:06:33;;;;;;;12.30;3.25;;;22.50;51.70;;;;;;31244302;28;20069;-49
2021/10/02 14:21:35;;;;;;;7.20;3.40;;;22.40;49.50;;;;;;31260404;28;20042;-52
2021/10/02 14:36:37;;;;;;;16.20;3.30;;;22.30;47.90;;;;;;31269828;28;20142;-49
2021/10/02 14:51:42;;;;;;;8.18;3.97;;;22.30;47.60;;;;;;31267284;28;20061;-51
2021/10/02 15:06:45;;;;;;;11.85;4.20;;;22.20;45.10;;;;;;31264915;28;20182;-52
2021/10/02 15:21:58;;;;;;;8.30;3.58;;;22.20;45.60;;;;;;31259596;28;20034;-52
2021/10/02 15:37:01;;;;;;;11.40;3.75;;;22.20;46.80;;;;;;31261437;28;20076;-51
2021/10/02 15:52:09;;;;;;;5.85;3.03;;;22.50;47.70;;;;;;31260306;28;20057;-51
2021/10/02 16:07:12;;;;;;;6.90;4.88;;;23.00;46.90;;;;;;31257513;28;20126;-65
2021/10/02 16:22:14;;;;;;;4.97;3.90;;;22.90;46.00;;;;;;31254529;28;20124;-67
2021/10/02 16:37:16;;;;;;;11.15;5.45;;;22.80;46.60;;;;;;31252263;28;20105;-64
2021/10/02 16:52:25;;;;;;;11.23;7.10;;;22.70;46.70;;;;;;31251046;28;20061;-64
2021/10/02 17:07:27;;;;;;;16.75;8.30;;;22.40;45.30;;;;;;31249788;28;20423;-63
2021/10/02 17:22:29;;;;;;;18.63;6.68;;;22.30;44.20;;;;;;31244917;28;20042;-64
2021/10/02 17:37:31;;;;;;;9.52;6.82;;;22.20;42.60;;;;;;31243414;28;20041;-64
2021/10/02 17:52:33;;;;;;;14.40;7.30;;;22.30;43.10;;;;;;31246530;28;20073;-63
2021/10/02 18:07:35;;;;;;;24.67;8.15;;;22.70;44.00;;;;;;31188302;28;20042;-62
2021/10/02 18:22:38;;;;;;;17.13;7.65;;;22.90;44.90;;;;;;31217712;28;20123;-60
2021/10/02 18:37:44;;;;;;;24.55;7.75;;;23.00;45.60;;;;;;31169331;28;20042;-55
2021/10/02 18:52:46;;;;;;;19.48;6.45;;;23.00;47.60;;;;;;30799602;28;10000623;-58
2021/10/02 19:07:48;;;;;;;12.02;6.55;;;23.00;49.20;;;;;;31245030;28;20061;-51
2021/10/02 19:22:50;;;;;;;13.98;7.30;;;23.00;49.80;;;;;;31184637;28;20137;-55
2021/10/02 19:37:53;;;;;;;17.20;10.90;;;23.00;50.70;;;;;;31230801;28;20042;-59
2021/10/02 19:52:55;;;;;;;20.70;13.23;;;23.00;50.80;;;;;;31256102;28;20403;-60
2021/10/02 20:07:57;;;;;;;21.77;15.07;;;22.90;51.10;;;;;;31251499;28;20054;-46
2021/10/02 20:23:03;;;;;;;25.08;16.80;;;22.90;51.30;;;;;;31230107;28;20069;-46
2021/10/02 20:38:05;;;;;;;26.52;17.02;;;22.90;51.20;;;;;;31213009;28;20041;-45
2021/10/02 20:53:07;;;;;;;34.67;15.10;;;22.80;51.20;;;;;;31163746;28;20081;-44
2021/10/02 21:08:10;;;;;;;30.67;23.05;;;22.90;51.80;;;;;;31133149;28;20097;-42
2021/10/02 21:23:13;;;;;;;7.55;6.07;;;22.70;52.30;;;;;;31130093;28;20102;-50
2021/10/02 21:38:15;;;;;;;1.92;1.65;;;22.70;51.70;;;;;;31131174;28;20174;-51
2021/10/02 21:53:17;;;;;;;1.15;1.02;;;22.80;51.60;;;;;;31128177;28;20174;-50
2021/10/02 22:08:20;;;;;;;0.30;0.30;;;22.90;51.60;;;;;;31142826;28;20048;-49
2021/10/02 22:23:24;;;;;;;0.20;0.20;;;22.90;51.60;;;;;;31248925;28;20105;-46
2021/10/02 22:38:26;;;;;;;12.57;5.78;;;22.90;51.70;;;;;;31167396;28;20049;-45
2021/10/02 22:53:28;;;;;;;26.85;20.90;;;22.90;51.40;;;;;;31150377;28;20109;-51
2021/10/02 23:08:31;;;;;;;25.98;18.52;;;22.80;51.10;;;;;;31151410;28;20097;-46
2021/10/02 23:23:33;;;;;;;26.10;17.75;;;22.80;51.10;;;;;;31236611;28;20104;-47
2021/10/02 23:38:36;;;;;;;21.30;15.90;;;22.90;50.90;;;;;;31269355;28;20042;-46
2021/10/02 23:53:39;;;;;;;21.38;15.70;;;22.70;51.70;;;;;;31195993;28;20472;-50
